Time;durP1;ratioP1;P1;durP2;ratioP2;P2;SDS_P1;SDS_P2;PMS_P1;PMS_P2;Temp;Humidity;BMP_temperature;BMP_pressure;BME280_temperature;BME280_humidity;BME280_pressure;Samples;Min_cycle;Max_cycle;Signal;HPM_P1;HPM_P2
2021/07/13 00:00:11;;;;;;;16.65;12.52;;;;;;;20.37;100.00;100674.16;6271473;28;20069;-75
2021/07/13 00:03:12;;;;;;;14.65;12.45;;;;;;;20.36;100.00;100669.81;6273913;28;20048;-75
2021/07/13 00:06:13;;;;;;;17.85;13.05;;;;;;;20.35;100.00;100678.78;6273938;28;20064;-75
2021/07/13 00:09:18;;;;;;;14.52;12.52;;;;;;;20.32;100.00;100676.44;6274084;28;20052;-76
2021/07/13 00:12:20;;;;;;;15.00;13.10;;;;;;;20.27;100.00;100669.69;6273601;28;20602;-75
2021/07/13 00:15:23;;;;;;;13.85;12.32;;;;;;;20.28;100.00;100670.53;6274218;28;20056;-75
2021/07/13 00:18:25;;;;;;;15.05;13.55;;;;;;;20.27;100.00;100669.69;6273974;28;20052;-75
2021/07/13 00:21:26;;;;;;;15.48;13.20;;;;;;;20.25;100.00;100662.81;6273363;28;20049;-75
2021/07/13 00:24:29;;;;;;;14.50;12.63;;;;;;;20.20;100.00;100673.09;6273517;28;20427;-75
2021/07/13 00:27:30;;;;;;;13.85;12.45;;;;;;;20.16;100.00;100666.34;6274097;28;20045;-75
2021/07/13 00:30:32;;;;;;;15.15;13.38;;;;;;;20.13;100.00;100658.66;6273822;28;20420;-75
2021/07/13 00:33:34;;;;;;;17.10;13.43;;;;;;;20.12;100.00;100651.63;6273080;28;20573;-75
2021/07/13 00:36:36;;;;;;;15.48;12.75;;;;;;;20.12;100.00;100654.28;6272335;28;20045;-76
2021/07/13 00:39:38;;;;;;;15.70;13.90;;;;;;;20.10;100.00;100656.28;6273429;28;20052;-75
2021/07/13 00:42:40;;;;;;;17.75;13.43;;;;;;;20.10;100.00;100666.94;6273137;28;20049;-75
2021/07/13 00:45:41;;;;;;;15.60;13.85;;;;;;;20.10;100.00;100670.47;6272712;28;20543;-75
2021/07/13 00:48:43;;;;;;;15.43;13.38;;;;;;;20.09;100.00;100673.28;6273683;28;20048;-75
2021/07/13 00:51:45;;;;;;;16.15;14.43;;;;;;;20.06;100.00;100671.72;6272809;28;20057;-75
2021/07/13 00:54:49;;;;;;;15.98;13.80;;;;;;;20.06;100.00;100673.56;6273114;28;20049;-75
2021/07/13 00:57:51;;;;;;;17.10;15.30;;;;;;;20.05;100.00;100667.38;6273017;28;20049;-75
2021/07/13 01:00:53;;;;;;;19.00;14.73;;;;;;;20.02;100.00;100657.84;6273181;28;20049;-75
2021/07/13 01:03:54;;;;;;;18.50;16.02;;;;;;;19.99;100.00;100662.63;6272070;28;20048;-74
2021/07/13 01:07:01;;;;;;;15.73;14.10;;;;;;;19.96;100.00;100665.59;6273306;28;20501;-75
2021/07/13 01:10:09;;;;;;;15.93;14.23;;;;;;;19.91;100.00;100660.69;6272820;28;20079;-75
2021/07/13 01:13:18;;;;;;;17.23;14.27;;;;;;;19.90;100.00;100668.84;6272635;28;20127;-75
2021/07/13 01:16:25;;;;;;;19.00;14.57;;;;;;;19.89;100.00;100659.97;6272108;28;20515;-75
2021/07/13 01:19:42;;;;;;;16.63;14.93;;;;;;;19.90;100.00;100667.00;6272926;28;20052;-75
2021/07/13 01:22:48;;;;;;;15.73;14.13;;;;;;;19.88;100.00;100670.78;6271953;28;20131;-75
2021/07/13 01:26:02;;;;;;;16.02;13.80;;;;;;;19.88;100.00;100668.13;6272155;28;20428;-75
2021/07/13 01:29:09;;;;;;;16.55;14.85;;;;;;;19.88;100.00;100676.13;6272472;28;20057;-74
2021/07/13 01:32:15;;;;;;;21.52;15.25;;;;;;;19.87;100.00;100671.78;6271619;28;20131;-75
2021/07/13 01:35:22;;;;;;;18.27;15.50;;;;;;;19.83;100.00;100679.22;6272137;28;20060;-75
2021/07/13 01:38:27;;;;;;;19.05;15.68;;;;;;;19.80;100.00;100676.84;6272369;28;20041;-75
2021/07/13 01:41:32;;;;;;;16.40;14.70;;;;;;;19.80;100.00;100670.66;6271840;28;20049;-75
2021/07/13 01:44:36;;;;;;;17.00;15.25;;;;;;;19.79;100.00;100677.00;6271911;28;20049;-75
2021/07/13 01:47:39;;;;;;;16.85;15.15;;;;;;;19.80;100.00;100676.00;6271466;28;20059;-74
2021/07/13 01:50:49;;;;;;;16.73;14.98;;;;;;;19.74;100.00;100672.09;6272299;28;20511;-75
2021/07/13 01:53:51;;;;;;;;;;;;;;;19.71;100.00;100662.56;6271549;28;20060;-74
2021/07/13 01:56:55;;;;;;;18.45;15.65;;;;;;;19.68;100.00;100657.50;6271920;28;19921;-75
2021/07/13 01:59:59;;;;;;;17.95;16.13;;;;;;;19.67;100.00;100657.66;6271924;28;20049;-75
2021/07/13 02:03:02;;;;;;;20.33;15.77;;;;;;;19.62;100.00;100655.41;6270668;28;20045;-75
2021/07/13 02:06:06;;;;;;;16.95;15.15;;;;;;;19.61;100.00;100651.03;6271482;28;20049;-75
2021/07/13 02:09:10;;;;;;;22.70;16.15;;;;;;;19.61;100.00;100648.38;6271666;28;20053;-74
2021/07/13 02:12:12;;;;;;;18.67;16.77;;;;;;;19.58;100.00;100647.81;6271215;28;20056;-75
2021/07/13 02:15:14;;;;;;;19.40;16.48;;;;;;;19.52;100.00;100652.72;6271203;28;20052;-74
2021/07/13 02:18:16;;;;;;;26.63;18.05;;;;;;;19.47;100.00;100648.78;6271107;28;20045;-74
2021/07/13 02:21:18;;;;;;;23.88;18.42;;;;;;;19.44;100.00;100631.28;6271304;28;20056;-74
2021/07/13 02:24:20;;;;;;;19.30;17.08;;;;;;;19.35;100.00;100624.13;6270681;28;20059;-75
2021/07/13 02:27:21;;;;;;;26.60;18.05;;;;;;;19.33;100.00;100627.91;6271051;28;20056;-75
2021/07/13 02:30:26;;;;;;;22.48;17.75;;;;;;;19.31;100.00;100624.56;6271487;28;20060;-75
2021/07/13 02:33:32;;;;;;;20.35;17.70;;;;;;;19.26;100.00;100627.63;6270382;28;20140;-75
2021/07/13 02:36:35;;;;;;;22.48;18.33;;;;;;;19.22;100.00;100627.06;6270992;28;20053;-75
2021/07/13 02:39:39;;;;;;;22.63;18.20;;;;;;;19.16;100.00;100635.59;6271219;28;20522;-75
2021/07/13 02:42:43;;;;;;;22.00;18.35;;;;;;;19.10;100.00;100625.53;6270526;28;20537;-75
2021/07/13 02:45:46;;;;;;;21.85;18.05;;;;;;;19.07;100.00;100623.13;6271074;28;20045;-75
2021/07/13 02:48:48;;;;;;;20.98;18.35;;;;;;;19.04;100.00;100627.91;6270596;28;20049;-75
2021/07/13 02:51:51;;;;;;;19.85;17.75;;;;;;;19.00;100.00;100630.00;6270542;28;20060;-74
2021/07/13 02:54:57;;;;;;;21.85;17.98;;;;;;;18.92;100.00;100628.03;6270556;28;20087;-74
2021/07/13 02:58:01;;;;;;;20.75;17.85;;;;;;;18.86;100.00;100625.09;6271419;28;20040;-74
2021/07/13 03:01:05;;;;;;;23.15;17.75;;;;;;;18.84;100.00;100638.53;6275931;28;20056;-74
2021/07/13 03:04:07;;;;;;;21.38;17.48;;;;;;;18.79;100.00;100629.28;6274933;28;20091;-74
2021/07/13 03:07:09;;;;;;;21.23;17.50;;;;;;;18.77;100.00;100632.09;6275824;28;20041;-74
2021/07/13 03:10:12;;;;;;;25.27;16.88;;;;;;;18.78;100.00;100632.91;6273018;28;20048;-74
2021/07/13 03:13:14;;;;;;;21.70;17.45;;;;;;;18.63;100.00;100622.63;6275135;28;20056;-75
2021/07/13 03:16:17;;;;;;;20.45;17.27;;;;;;;18.63;100.00;100629.78;6275362;28;20492;-74
2021/07/13 03:19:18;;;;;;;21.48;16.90;;;;;;;18.59;100.00;100626.56;6273036;28;20044;-75
2021/07/13 03:22:22;;;;;;;19.40;16.05;;;;;;;18.56;100.00;100624.16;6257273;28;20536;-75
2021/07/13 03:25:27;;;;;;;20.63;17.73;;;;;;;18.55;100.00;100618.97;6272539;28;20056;-74
2021/07/13 03:28:30;;;;;;;21.92;17.25;;;;;;;18.53;100.00;100621.78;6263830;28;20713;-75
2021/07/13 03:31:34;;;;;;;20.10;16.58;;;;;;;18.51;100.00;100626.38;6275524;28;20049;-74
2021/07/13 03:34:35;;;;;;;22.17;18.08;;;;;;;18.49;100.00;100618.53;6261347;28;20048;-74
2021/07/13 03:37:37;;;;;;;20.20;17.25;;;;;;;18.48;100.00;100627.47;6257599;28;20041;-75
2021/07/13 03:40:40;;;;;;;23.50;18.58;;;;;;;18.45;100.00;100632.25;6274652;28;20053;-75
2021/07/13 03:43:42;;;;;;;22.48;18.45;;;;;;;18.43;100.00;100626.22;6260092;28;20516;-75
2021/07/13 03:46:45;;;;;;;25.17;18.13;;;;;;;18.41;100.00;100633.50;6262969;28;20049;-75
2021/07/13 03:49:48;;;;;;;23.40;18.27;;;;;;;18.38;100.00;100625.78;6260958;28;20056;-75
2021/07/13 03:52:51;;;;;;;21.67;17.88;;;;;;;18.37;100.00;100624.94;6261433;28;20053;-74
2021/07/13 03:55:53;;;;;;;24.92;18.27;;;;;;;18.39;100.00;100628.28;6255818;28;20049;-74
2021/07/13 03:58:55;;;;;;;21.13;17.67;;;;;;;18.36;100.00;100628.59;6269622;28;20049;-75
2021/07/13 04:01:58;;;;;;;28.70;18.42;;;;;;;18.40;100.00;100632.66;6262979;28;20049;-75
2021/07/13 04:04:59;;;;;;;21.33;17.50;;;;;;;18.35;100.00;100631.34;6262186;28;20057;-75
2021/07/13 04:08:00;;;;;;;23.30;18.42;;;;;;;18.35;100.00;100628.69;6249950;28;20060;-74
2021/07/13 04:11:02;;;;;;;22.30;16.83;;;;;;;18.40;100.00;100624.69;6252853;28;20060;-75
2021/07/13 04:14:04;;;;;;;22.08;17.10;;;;;;;18.44;100.00;100627.88;6249535;28;20060;-75
2021/07/13 04:17:07;;;;;;;23.00;18.55;;;;;;;18.42;100.00;100632.50;6249485;28;20409;-75
2021/07/13 04:20:09;;;;;;;22.48;18.48;;;;;;;18.43;100.00;100639.50;6249296;28;20052;-74
2021/07/13 04:23:11;;;;;;;23.35;17.75;;;;;;;18.44;100.00;100635.88;6231453;28;20073;-74
2021/07/13 04:26:12;;;;;;;23.98;18.58;;;;;;;18.46;100.00;100626.78;6248201;28;20420;-75
2021/07/13 04:29:14;;;;;;;25.83;17.98;;;;;;;18.42;100.00;100635.19;6249646;28;20064;-74
2021/07/13 04:32:16;;;;;;;22.02;19.15;;;;;;;18.44;100.00;100634.09;6261442;28;20049;-76
2021/07/13 04:35:18;;;;;;;22.17;17.73;;;;;;;18.47;100.00;100633.78;6273761;28;20523;-75
2021/07/13 04:38:19;;;;;;;20.48;17.70;;;;;;;18.49;100.00;100639.00;6273691;28;20071;-75
2021/07/13 04:41:21;;;;;;;21.40;18.25;;;;;;;18.50;100.00;100640.66;6273521;28;20531;-75
2021/07/13 04:44:22;;;;;;;26.20;17.05;;;;;;;18.58;100.00;100629.34;6272641;28;20049;-74
2021/07/13 04:47:26;;;;;;;19.33;16.65;;;;;;;18.64;100.00;100632.31;6273450;28;20056;-75
2021/07/13 04:50:27;;;;;;;19.48;15.88;;;;;;;18.72;100.00;100637.81;6272952;28;20041;-75
2021/07/13 04:53:29;;;;;;;18.13;16.23;;;;;;;18.77;100.00;100634.75;6259387;28;20049;-76
2021/07/13 04:56:31;;;;;;;17.40;15.55;;;;;;;18.82;100.00;100631.66;6268751;28;20075;-75
2021/07/13 04:59:33;;;;;;;19.38;15.85;;;;;;;18.89;100.00;100633.63;6250305;28;20522;-75
2021/07/13 05:02:35;;;;;;;34.90;27.08;;;;;;;18.93;100.00;100636.84;6247845;28;20397;-75
2021/07/13 05:05:37;;;;;;;20.60;17.63;;;;;;;18.95;100.00;100633.09;6248031;28;20053;-75
2021/07/13 05:08:39;;;;;;;18.10;15.27;;;;;;;18.97;100.00;100627.63;6248489;28;20050;-74
2021/07/13 05:11:41;;;;;;;19.08;15.70;;;;;;;18.99;100.00;100629.19;6247799;28;20460;-75
2021/07/13 05:14:42;;;;;;;16.23;14.45;;;;;;;18.97;100.00;100628.44;6249459;28;20519;-74
2021/07/13 05:17:45;;;;;;;17.45;13.65;;;;;;;19.00;100.00;100633.50;6248071;28;20045;-74
2021/07/13 05:20:48;;;;;;;16.70;13.57;;;;;;;19.05;100.00;100646.41;6251678;28;20052;-75
2021/07/13 05:23:49;;;;;;;15.98;14.27;;;;;;;19.09;100.00;100631.84;6247288;28;20055;-74
2021/07/13 05:26:51;;;;;;;15.45;13.80;;;;;;;19.16;100.00;100632.09;6247418;28;20542;-75
2021/07/13 05:29:52;;;;;;;16.75;14.35;;;;;;;19.19;100.00;100629.16;6247668;28;20515;-75
2021/07/13 05:32:55;;;;;;;18.92;14.15;;;;;;;19.24;100.00;100626.94;6247112;28;20057;-74
2021/07/13 05:35:57;;;;;;;18.67;14.75;;;;;;;19.26;100.00;100625.81;6247375;28;20056;-75
2021/07/13 05:39:00;;;;;;;18.52;12.48;;;;;;;19.37;100.00;100622.16;6247345;28;20064;-76
2021/07/13 05:42:01;;;;;;;16.98;14.32;;;;;;;19.39;100.00;100620.16;6246792;28;20053;-73
2021/07/13 05:45:05;;;;;;;16.45;14.70;;;;;;;19.40;100.00;100616.53;6247092;28;20057;-76
2021/07/13 05:48:08;;;;;;;16.48;14.10;;;;;;;19.41;100.00;100618.22;6247238;28;20451;-75
2021/07/13 05:51:09;;;;;;;19.30;15.00;;;;;;;19.42;100.00;100617.22;6247543;28;20637;-76
2021/07/13 05:54:11;;;;;;;18.48;14.35;;;;;;;19.45;100.00;100618.78;6246197;28;20691;-74
2021/07/13 05:57:12;;;;;;;17.65;14.60;;;;;;;19.47;100.00;100625.63;6246337;28;20443;-74
2021/07/13 06:00:15;;;;;;;16.10;13.75;;;;;;;19.52;100.00;100617.22;6252233;28;20049;-74
2021/07/13 06:03:17;;;;;;;17.10;13.63;;;;;;;19.58;100.00;100624.66;6250307;28;20049;-74
2021/07/13 06:06:19;;;;;;;17.85;13.55;;;;;;;19.63;100.00;100627.75;6257698;28;20547;-74
2021/07/13 06:09:20;;;;;;;21.17;14.65;;;;;;;19.67;100.00;100626.50;6261758;28;20048;-74
2021/07/13 06:12:22;;;;;;;23.33;16.65;;;;;;;19.75;100.00;100621.25;6270160;28;20083;-74
2021/07/13 06:15:23;;;;;;;21.05;16.80;;;;;;;19.74;100.00;100621.41;6271245;28;20056;-73
2021/07/13 06:18:26;;;;;;;24.77;16.60;;;;;;;19.79;100.00;100629.81;6270623;28;20049;-74
2021/07/13 06:21:27;;;;;;;21.02;16.98;;;;;;;19.82;100.00;100632.22;6271646;28;20049;-74
2021/07/13 06:24:29;;;;;;;19.88;17.10;;;;;;;19.85;100.00;100631.06;6270520;28;20523;-74
2021/07/13 06:27:30;;;;;;;20.48;16.35;;;;;;;19.89;100.00;100633.28;6270668;28;20045;-74
2021/07/13 06:30:32;;;;;;;19.70;15.25;;;;;;;19.97;100.00;100632.59;6270589;28;20056;-74
2021/07/13 06:33:34;;;;;;;20.65;16.95;;;;;;;20.01;100.00;100632.16;6267064;28;20056;-74
2021/07/13 06:36:36;;;;;;;20.52;16.63;;;;;;;20.05;100.00;100630.03;6270937;28;20049;-74
2021/07/13 06:39:37;;;;;;;19.83;16.00;;;;;;;20.10;100.00;100629.59;6261834;28;20046;-74
2021/07/13 06:42:39;;;;;;;22.17;16.83;;;;;;;20.13;100.00;100619.47;6253084;28;20060;-74
2021/07/13 06:45:41;;;;;;;21.08;16.95;;;;;;;20.17;100.00;100618.19;6261740;28;20051;-74
2021/07/13 06:48:44;;;;;;;25.25;16.58;;;;;;;20.23;100.00;100627.44;6260623;28;20056;-74
2021/07/13 06:51:46;;;;;;;21.90;16.00;;;;;;;20.32;100.00;100629.22;6256317;28;20561;-74
2021/07/13 06:54:47;;;;;;;26.60;17.52;;;;;;;20.32;100.00;100634.56;6261379;28;20511;-74
2021/07/13 06:57:49;;;;;;;24.92;14.95;;;;;;;20.38;100.00;100633.13;6262896;28;20041;-74
2021/07/13 07:00:50;;;;;;;19.00;15.75;;;;;;;20.46;100.00;100638.56;6247537;28;20052;-75
2021/07/13 07:03:53;;;;;;;18.80;15.57;;;;;;;20.50;100.00;100640.81;6245471;28;20057;-75
2021/07/13 07:06:54;;;;;;;17.05;14.48;;;;;;;20.61;100.00;100641.59;6253022;28;20056;-75
2021/07/13 07:09:56;;;;;;;22.95;16.05;;;;;;;20.75;100.00;100641.94;6254034;28;20045;-75
2021/07/13 07:12:57;;;;;;;19.25;15.23;;;;;;;20.72;100.00;100633.41;6268633;28;20052;-75
2021/07/13 07:15:58;;;;;;;16.98;14.60;;;;;;;20.80;100.00;100640.63;6270545;28;20049;-75
2021/07/13 07:19:01;;;;;;;18.50;16.30;;;;;;;20.76;100.00;100642.78;6270225;28;20424;-75
2021/07/13 07:22:03;;;;;;;18.60;15.70;;;;;;;20.78;100.00;100646.97;6269375;28;20053;-75
2021/07/13 07:25:05;;;;;;;16.77;15.05;;;;;;;20.82;100.00;100641.34;6268241;28;20068;-74
2021/07/13 07:28:11;;;;;;;17.00;15.25;;;;;;;20.90;100.00;100641.44;6268235;28;20048;-73
2021/07/13 07:31:14;;;;;;;17.15;15.35;;;;;;;20.93;100.00;100643.78;6269426;28;20048;-75
2021/07/13 07:34:17;;;;;;;18.48;15.38;;;;;;;20.94;100.00;100643.66;6268034;28;20393;-75
2021/07/13 07:37:18;;;;;;;17.38;15.32;;;;;;;20.94;100.00;100638.31;6270102;28;20052;-74
2021/07/13 07:40:21;;;;;;;23.35;16.58;;;;;;;20.98;100.00;100630.81;6261422;28;20496;-74
2021/07/13 07:43:22;;;;;;;18.88;15.18;;;;;;;21.03;100.00;100641.91;6245012;28;20045;-74
2021/07/13 07:46:23;;;;;;;19.92;16.38;;;;;;;21.09;100.00;100635.94;6249553;28;20049;-75
2021/07/13 07:49:26;;;;;;;19.08;14.30;;;;;;;21.14;100.00;100648.84;6250151;28;20041;-74
2021/07/13 07:52:28;;;;;;;17.00;15.00;;;;;;;21.20;100.00;100648.22;6267374;28;20044;-75
2021/07/13 07:55:29;;;;;;;24.88;16.38;;;;;;;21.21;100.00;100647.22;6274028;28;20639;-74
2021/07/13 07:58:31;;;;;;;17.42;13.77;;;;;;;21.25;100.00;100638.75;6274416;28;20045;-74
2021/07/13 08:01:32;;;;;;;18.17;14.35;;;;;;;21.31;100.00;100639.16;6274700;28;20067;-74
2021/07/13 08:04:35;;;;;;;17.10;14.10;;;;;;;21.42;100.00;100644.28;6264806;28;20515;-74
2021/07/13 08:07:37;;;;;;;15.70;13.93;;;;;;;21.49;100.00;100650.69;6256513;28;20620;-75
2021/07/13 08:10:38;;;;;;;17.75;15.85;;;;;;;21.49;100.00;100640.84;6274342;28;20408;-75
2021/07/13 08:13:40;;;;;;;16.48;14.73;;;;;;;21.52;100.00;100637.84;6256613;28;20060;-76
2021/07/13 08:16:43;;;;;;;26.17;13.82;;;;;;;21.67;100.00;100630.13;6273854;28;20049;-75
2021/07/13 08:19:46;;;;;;;16.08;13.13;;;;;;;21.75;100.00;100637.31;6273552;28;20049;-75
2021/07/13 08:22:48;;;;;;;20.60;13.90;;;;;;;21.80;100.00;100632.34;6273711;28;20382;-74
2021/07/13 08:25:49;;;;;;;16.25;14.52;;;;;;;21.84;100.00;100636.38;6273539;28;20053;-75
2021/07/13 08:28:50;;;;;;;20.35;14.35;;;;;;;22.12;100.00;100621.06;6274285;28;20045;-75
2021/07/13 08:31:56;;;;;;;15.55;13.85;;;;;;;22.10;100.00;100630.19;6274125;28;20500;-74
2021/07/13 08:34:59;;;;;;;18.40;13.73;;;;;;;22.10;100.00;100628.34;6273441;28;20159;-75
2021/07/13 08:38:00;;;;;;;18.02;13.88;;;;;;;22.08;100.00;100622.34;6267189;28;20049;-74
2021/07/13 08:41:02;;;;;;;14.30;12.15;;;;;;;22.12;100.00;100617.50;6248329;28;20049;-75
2021/07/13 08:44:03;;;;;;;14.45;12.75;;;;;;;22.31;100.00;100614.59;6248004;28;20053;-74
2021/07/13 08:47:05;;;;;;;21.15;13.55;;;;;;;22.41;100.00;100614.47;6249156;28;20049;-76
2021/07/13 08:50:10;;;;;;;16.45;13.25;;;;;;;22.39;100.00;100614.66;6248891;28;20056;-75
2021/07/13 08:53:11;;;;;;;15.68;10.98;;;;;;;22.35;100.00;100610.59;6247721;28;20559;-74
2021/07/13 08:56:12;;;;;;;13.57;10.13;;;;;;;22.28;98.25;100612.25;6247710;28;20053;-74
2021/07/13 08:59:14;;;;;;;16.77;10.98;;;;;;;22.26;99.71;100608.91;6248612;28;20076;-74
2021/07/13 09:02:15;;;;;;;15.43;11.35;;;;;;;22.17;99.06;100615.22;6248063;28;20045;-74
2021/07/13 09:05:22;;;;;;;13.70;10.45;;;;;;;22.17;98.25;100612.53;6247879;28;20053;-75
2021/07/13 09:08:25;;;;;;;11.65;10.43;;;;;;;22.17;98.38;100610.69;6248488;28;20056;-75
2021/07/13 09:11:27;;;;;;;13.70;9.95;;;;;;;22.20;99.05;100609.53;6248177;28;20484;-74
2021/07/13 09:14:45;;;;;;;12.60;9.18;;;;;;;22.34;100.00;100611.59;6272062;28;20131;-75
2021/07/13 09:17:47;;;;;;;8.32;7.53;;;;;;;22.45;98.90;100619.34;6273072;28;20475;-74
2021/07/13 09:21:05;;;;;;;11.10;8.85;;;;;;;22.61;97.29;100613.19;6273164;28;20053;-74
2021/07/13 09:24:14;;;;;;;11.63;8.85;;;;;;;22.74;94.64;100618.06;6260003;28;20075;-75
2021/07/13 09:27:18;;;;;;;11.30;7.32;;;;;;;22.86;93.01;100610.59;6273350;28;20063;-75
2021/07/13 09:30:20;;;;;;;13.73;7.50;;;;;;;22.92;92.87;100612.63;6272093;28;20060;-74
2021/07/13 09:33:23;;;;;;;10.07;8.00;;;;;;;22.98;92.84;100609.25;6271871;28;20051;-74
2021/07/13 09:36:26;;;;;;;10.63;7.00;;;;;;;23.01;90.40;100612.47;6261114;28;20073;-75
2021/07/13 09:39:28;;;;;;;9.43;6.45;;;;;;;23.08;90.58;100614.50;6247555;28;20072;-75
2021/07/13 09:42:31;;;;;;;8.02;6.97;;;;;;;23.16;90.59;100607.28;6248783;28;20191;-75
2021/07/13 09:45:33;;;;;;;8.07;5.30;;;;;;;23.26;86.00;100607.97;6247299;28;20057;-76
2021/07/13 09:48:35;;;;;;;8.60;4.80;;;;;;;23.39;84.55;100601.22;6261282;28;20056;-75
2021/07/13 09:51:38;;;;;;;6.95;5.15;;;;;;;23.38;84.64;100603.09;6271175;28;20490;-76
2021/07/13 09:54:41;;;;;;;7.78;5.13;;;;;;;23.55;83.42;100601.22;6270897;28;20056;-74
2021/07/13 09:57:43;;;;;;;7.05;5.38;;;;;;;23.45;84.46;100608.63;6271548;28;20045;-74
2021/07/13 10:00:46;;;;;;;5.93;5.05;;;;;;;23.38;84.04;100602.25;6270841;28;20048;-75
2021/07/13 10:03:48;;;;;;;6.45;5.00;;;;;;;23.40;86.61;100603.78;6268916;28;20044;-75
2021/07/13 10:06:53;;;;;;;13.80;5.90;;;;;;;23.43;88.42;100610.63;6270730;28;20060;-75
2021/07/13 10:09:57;;;;;;;10.98;5.30;;;;;;;23.41;89.49;100610.81;6271242;28;20055;-76
2021/07/13 10:12:59;;;;;;;5.97;5.13;;;;;;;23.38;89.90;100610.28;6270878;28;20061;-76
2021/07/13 10:16:01;;;;;;;17.92;5.25;;;;;;;23.31;88.78;100606.63;6270506;28;20057;-75
2021/07/13 10:19:04;;;;;;;5.88;4.60;;;;;;;23.25;84.47;100608.94;6271389;28;20573;-76
2021/07/13 10:22:07;;;;;;;6.72;5.05;;;;;;;23.27;84.16;100600.75;6271518;28;20060;-74
2021/07/13 10:25:09;;;;;;;5.18;4.40;;;;;;;23.29;85.02;100607.59;6270540;28;20056;-75
2021/07/13 10:28:12;;;;;;;6.65;4.93;;;;;;;23.26;86.06;100605.28;6282692;22;20435;-73
2021/07/13 10:31:14;;;;;;;6.57;4.10;;;;;;;23.23;85.25;100602.94;6270282;28;20127;-77
2021/07/13 10:34:48;;;;;;;6.28;4.00;;;;;;;23.19;85.33;100598.91;6269622;28;20049;-77
2021/07/13 10:37:53;;;;;;;4.80;4.30;;;;;;;23.28;86.18;100599.75;6264295;28;20183;-76
2021/07/13 10:40:55;;;;;;;5.13;4.40;;;;;;;23.24;84.67;100601.91;6246354;28;20046;-77
2021/07/13 10:43:57;;;;;;;6.53;5.07;;;;;;;23.35;85.25;100599.94;6245157;28;20555;-77
2021/07/13 10:47:23;;;;;;;6.00;4.53;;;;;;;23.45;84.61;100603.25;6246457;28;20045;-77
2021/07/13 10:50:35;;;;;;;6.78;4.93;;;;;;;23.54;84.53;100612.97;6246245;28;20053;-77
2021/07/13 10:53:39;;;;;;;11.02;5.05;;;;;;;23.68;83.25;100606.94;6245851;28;20050;-77
2021/07/13 10:56:41;;;;;;;6.45;3.63;;;;;;;23.71;83.51;100605.75;6245970;28;20152;-76
2021/07/13 10:59:44;;;;;;;5.22;3.90;;;;;;;23.74;84.85;100598.22;6245868;28;20056;-76
2021/07/13 11:02:46;;;;;;;3.97;3.58;;;;;;;23.72;85.73;100605.59;6245487;28;20125;-76
2021/07/13 11:05:50;;;;;;;7.00;4.05;;;;;;;23.67;85.94;100602.59;6245882;28;20053;-75
2021/07/13 11:08:56;;;;;;;9.50;3.38;;;;;;;23.57;83.90;100603.72;6245800;28;20050;-75
2021/07/13 11:12:10;;;;;;;5.80;2.72;;;;;;;23.51;79.32;100600.72;6246374;28;20057;-74
2021/07/13 11:15:13;;;;;;;4.45;2.78;;;;;;;23.41;79.19;100600.06;6244175;28;20056;-74
2021/07/13 11:18:26;;;;;;;3.25;2.67;;;;;;;23.23;80.69;100596.72;6245388;28;20050;-74
2021/07/13 11:21:29;;;;;;;4.45;2.58;;;;;;;23.09;82.58;100598.22;6250315;28;20049;-74
2021/07/13 11:24:32;;;;;;;3.63;2.70;;;;;;;22.98;83.04;100594.06;6248087;28;20053;-74
2021/07/13 11:27:36;;;;;;;3.13;2.63;;;;;;;22.90;83.15;100596.72;6250287;28;20053;-75
2021/07/13 11:30:37;;;;;;;3.20;2.90;;;;;;;22.84;83.62;100604.53;6250762;28;20049;-75
2021/07/13 11:33:39;;;;;;;3.60;2.85;;;;;;;22.78;85.22;100598.81;6250084;28;20057;-75
2021/07/13 11:36:42;;;;;;;4.82;3.10;;;;;;;22.71;85.38;100605.00;6250193;28;20666;-74
2021/07/13 11:39:45;;;;;;;6.68;3.15;;;;;;;22.63;84.38;100600.47;6249961;28;20050;-75
2021/07/13 11:42:56;;;;;;;5.38;3.05;;;;;;;22.58;87.20;100610.00;6249599;28;20394;-75
2021/07/13 11:46:10;;;;;;;3.08;2.78;;;;;;;22.49;85.55;100615.34;6249915;28;20511;-75
2021/07/13 11:49:13;;;;;;;4.53;2.78;;;;;;;22.49;86.78;100619.88;6250466;28;20053;-74
2021/07/13 11:52:15;;;;;;;4.07;3.33;;;;;;;22.45;88.01;100629.22;6250105;28;20053;-75
2021/07/13 11:55:25;;;;;;;5.07;3.45;;;;;;;22.40;89.63;100621.66;6249063;28;20089;-75
2021/07/13 11:58:27;;;;;;;4.30;3.20;;;;;;;22.35;89.13;100624.00;6250229;28;20056;-75
2021/07/13 12:01:30;;;;;;;7.63;3.13;;;;;;;22.34;89.52;100622.28;6246329;28;20048;-76
2021/07/13 12:04:37;;;;;;;4.30;3.00;;;;;;;22.34;89.22;100621.47;6248965;28;20046;-75
2021/07/13 12:07:38;;;;;;;5.20;3.30;;;;;;;22.34;89.32;100622.28;6250084;28;20053;-75
2021/07/13 12:10:41;;;;;;;4.68;3.15;;;;;;;22.39;90.23;100622.69;6250118;28;20053;-74
2021/07/13 12:13:45;;;;;;;6.63;3.00;;;;;;;22.42;90.76;100622.34;6248645;28;20056;-76
2021/07/13 12:16:46;;;;;;;11.65;3.22;;;;;;;22.49;90.77;100625.22;6249558;28;20046;-76
2021/07/13 12:19:48;;;;;;;5.47;3.50;;;;;;;22.51;89.99;100624.03;6249362;28;20068;-77
2021/07/13 12:22:55;;;;;;;3.90;3.50;;;;;;;22.51;89.64;100618.69;6249044;28;20054;-74
2021/07/13 12:26:20;;;;;;;10.43;3.60;;;;;;;22.53;89.17;100618.53;6248610;28;20054;-76
2021/07/13 12:29:23;;;;;;;5.30;3.47;;;;;;;22.58;88.56;100624.25;6249281;28;20547;-77
2021/07/13 12:32:27;;;;;;;7.13;3.47;;;;;;;22.61;90.26;100615.88;6248327;28;20544;-77
2021/07/13 12:35:29;;;;;;;3.80;3.08;;;;;;;22.66;90.86;100618.06;6248145;28;20060;-77
2021/07/13 12:38:37;;;;;;;4.22;3.30;;;;;;;22.67;88.64;100623.28;6248811;28;20432;-76
2021/07/13 12:41:39;;;;;;;4.90;3.00;;;;;;;22.71;89.95;100613.03;6248875;28;20072;-76
2021/07/13 12:44:47;;;;;;;6.88;3.95;;;;;;;22.72;90.70;100628.97;6248068;28;20049;-76
2021/07/13 12:47:49;;;;;;;5.22;3.08;;;;;;;22.77;88.83;100623.13;6248941;28;20045;-77
2021/07/13 12:50:51;;;;;;;5.43;3.60;;;;;;;22.77;89.00;100629.31;6248774;28;20053;-76
2021/07/13 12:54:06;;;;;;;5.25;3.25;;;;;;;22.76;88.85;100624.97;6247893;28;20516;-77
2021/07/13 12:57:30;;;;;;;4.15;3.05;;;;;;;22.79;87.12;100621.94;6248553;28;20508;-77
2021/07/13 13:00:32;;;;;;;3.70;3.20;;;;;;;22.82;87.46;100620.78;6248544;28;20509;-76
2021/07/13 13:03:34;;;;;;;4.32;3.22;;;;;;;22.83;87.29;100611.72;6247641;28;20056;-77
2021/07/13 13:06:36;;;;;;;29.50;5.03;;;;;;;22.78;86.67;100609.53;6248152;28;20124;-76
2021/07/13 13:09:37;;;;;;;7.45;3.50;;;;;;;22.76;85.92;100611.56;6248333;28;20485;-77
2021/07/13 13:12:50;;;;;;;5.53;3.10;;;;;;;22.79;85.52;100613.91;6248145;28;20046;-76
2021/07/13 13:15:52;;;;;;;10.13;3.40;;;;;;;22.81;86.96;100611.06;6247426;28;20137;-77
2021/07/13 13:18:55;;;;;;;3.92;3.47;;;;;;;22.86;89.55;100607.91;6248421;28;20543;-77
2021/07/13 13:21:56;;;;;;;8.18;3.72;;;;;;;22.91;87.72;100606.44;6247902;28;20393;-76
2021/07/13 13:24:58;;;;;;;10.48;3.88;;;;;;;23.12;84.29;100605.09;6247230;28;20060;-76
2021/07/13 13:28:00;;;;;;;7.15;3.75;;;;;;;23.17;85.20;100595.56;6247315;28;20049;-76
2021/07/13 13:31:02;;;;;;;5.75;3.70;;;;;;;23.34;85.62;100595.53;6248000;28;20052;-76
2021/07/13 13:34:04;;;;;;;6.97;4.88;;;;;;;23.37;83.05;100595.22;6246185;28;20500;-76
2021/07/13 13:37:10;;;;;;;6.13;4.38;;;;;;;23.65;84.80;100604.59;6245546;28;20566;-76
2021/07/13 13:40:12;;;;;;;11.10;5.55;;;;;;;23.71;86.21;100609.31;6244723;28;20041;-76
2021/07/13 13:43:14;;;;;;;8.60;7.70;;;;;;;23.90;85.94;100615.31;6240106;28;20056;-76
2021/07/13 13:46:16;;;;;;;18.55;9.10;;;;;;;23.78;87.37;100610.28;6246509;28;20057;-76
2021/07/13 13:49:17;;;;;;;11.52;9.98;;;;;;;23.88;88.58;100607.41;6247102;28;20523;-76
2021/07/13 13:52:18;;;;;;;15.48;9.52;;;;;;;23.94;88.37;100605.91;6247409;28;20041;-74